createdAt,value
2018-04-18T00:00:07.598Z,13.13
2018-04-18T00:02:35.765Z,13.08
2018-04-18T00:05:03.953Z,12.98
2018-04-18T00:07:32.120Z,12.95
2018-04-18T00:10:00.313Z,12.97
2018-04-18T00:12:28.489Z,12.98
2018-04-18T00:14:57.433Z,12.96
2018-04-18T00:17:25.589Z,12.94
2018-04-18T00:19:53.765Z,12.91
2018-04-18T00:22:21.930Z,12.84
2018-04-18T00:24:50.864Z,12.84
2018-04-18T00:27:19.061Z,12.84
2018-04-18T00:29:47.231Z,12.86
2018-04-18T00:32:15.416Z,12.78
2018-04-18T00:34:43.601Z,12.74
2018-04-18T00:37:12.547Z,12.62
2018-04-18T00:39:40.732Z,12.62
2018-04-18T00:42:08.915Z,12.63
2018-04-18T00:44:37.089Z,12.60
2018-04-18T00:47:05.261Z,12.55
2018-04-18T00:49:34.206Z,12.59
2018-04-18T00:52:02.384Z,12.55
2018-04-18T00:54:30.567Z,12.48
2018-04-18T00:56:58.746Z,12.44
2018-04-18T00:59:26.923Z,12.45
2018-04-18T01:01:55.090Z,12.50
2018-04-18T01:04:23.260Z,12.42
2018-04-18T01:06:51.458Z,12.36
2018-04-18T01:09:19.637Z,12.33
2018-04-18T01:11:47.825Z,12.34
2018-04-18T01:14:16.021Z,12.34
2018-04-18T01:16:44.247Z,12.34
2018-04-18T01:19:12.472Z,12.27
2018-04-18T01:21:40.650Z,12.33
2018-04-18T01:24:08.829Z,12.22
2018-04-18T01:26:37.771Z,12.20
2018-04-18T01:29:05.984Z,12.13
2018-04-18T01:31:34.156Z,12.10
2018-04-18T01:34:03.113Z,11.95
2018-04-18T01:36:31.321Z,11.98
2018-04-18T01:38:59.489Z,11.95
2018-04-18T01:41:27.663Z,11.89
2018-04-18T01:43:55.912Z,11.92
2018-04-18T01:46:24.097Z,11.87
2018-04-18T01:48:52.317Z,11.79
2018-04-18T01:51:21.263Z,11.79
2018-04-18T01:53:49.432Z,11.77
2018-04-18T01:56:17.605Z,11.67
2018-04-18T01:58:45.801Z,11.61
2018-04-18T02:01:14.228Z,11.64
2018-04-18T02:03:43.177Z,11.65
2018-04-18T02:06:11.349Z,11.68
2018-04-18T02:08:39.578Z,11.68
2018-04-18T02:11:07.753Z,11.65
2018-04-18T02:13:35.928Z,11.62
2018-04-18T02:16:04.114Z,11.57
2018-04-18T02:18:32.295Z,11.51
2018-04-18T02:21:00.473Z,11.52
2018-04-18T02:23:28.671Z,11.46
2018-04-18T02:25:56.852Z,11.45
2018-04-18T02:28:25.054Z,11.48
2018-04-18T02:30:54.020Z,11.45
2018-04-18T02:33:22.197Z,11.45
2018-04-18T02:35:50.401Z,11.39
2018-04-18T02:38:19.381Z,11.33
2018-04-18T02:40:47.560Z,11.29
2018-04-18T02:43:15.730Z,11.20
2018-04-18T02:45:44.662Z,11.22
2018-04-18T02:48:12.849Z,11.23
2018-04-18T02:50:41.053Z,11.21
2018-04-18T02:53:09.220Z,11.17
2018-04-18T02:55:37.388Z,11.22
2018-04-18T02:58:05.568Z,11.21
2018-04-18T03:00:33.750Z,11.12
2018-04-18T03:03:01.921Z,11.12
2018-04-18T03:05:30.095Z,11.08
2018-04-18T03:07:58.285Z,11.11
2018-04-18T03:10:26.480Z,11.06
2018-04-18T03:12:55.418Z,11.03
2018-04-18T03:15:23.591Z,10.96
2018-04-18T03:17:51.788Z,10.95
2018-04-18T03:20:19.985Z,10.91
2018-04-18T03:22:48.166Z,10.85
2018-04-18T03:25:17.105Z,10.80
2018-04-18T03:27:45.282Z,10.81
2018-04-18T03:30:13.456Z,10.84
2018-04-18T03:32:41.628Z,10.84
2018-04-18T03:35:09.801Z,10.82
2018-04-18T03:37:38.005Z,10.82
2018-04-18T03:40:06.182Z,10.84
2018-04-18T03:42:34.360Z,10.81
2018-04-18T03:45:02.577Z,10.79
2018-04-18T03:47:30.732Z,10.80
2018-04-18T03:49:59.690Z,10.70
2018-04-18T03:52:27.865Z,10.67
2018-04-18T03:54:56.035Z,10.68
2018-04-18T03:57:24.205Z,10.63
2018-04-18T03:59:52.377Z,10.66
2018-04-18T04:02:20.562Z,10.59
2018-04-18T04:04:48.773Z,10.55
2018-04-18T04:07:17.715Z,10.64
2018-04-18T04:09:45.890Z,10.61
2018-04-18T04:12:14.061Z,10.65
2018-04-18T04:14:42.253Z,10.61
2018-04-18T04:17:28.279Z,10.59
2018-04-18T04:20:15.025Z,10.56
2018-04-18T04:23:01.158Z,10.58
2018-04-18T04:25:29.337Z,10.55
2018-04-18T04:27:57.538Z,10.62
2018-04-18T04:30:26.589Z,10.57
2018-04-18T04:32:54.788Z,10.61
2018-04-18T04:35:23.004Z,10.61
2018-04-18T04:37:51.204Z,10.64
2018-04-18T04:40:19.395Z,10.64
2018-04-18T04:42:47.606Z,10.69
2018-04-18T04:45:16.557Z,10.68
2018-04-18T04:47:44.724Z,10.69
2018-04-18T04:50:12.897Z,10.73
2018-04-18T04:52:41.084Z,10.88
2018-04-18T04:55:09.268Z,11.00
2018-04-18T04:57:37.445Z,11.06
2018-04-18T05:00:05.625Z,11.07
2018-04-18T05:02:33.816Z,11.08
2018-04-18T05:05:02.761Z,11.12
2018-04-18T05:07:30.954Z,11.18
2018-04-18T05:09:59.128Z,11.18
2018-04-18T05:12:27.308Z,11.21
2018-04-18T05:14:55.482Z,11.24
2018-04-18T05:17:23.678Z,11.31
2018-04-18T05:19:51.864Z,11.37
2018-04-18T05:22:20.820Z,11.36
2018-04-18T05:24:48.999Z,11.37
2018-04-18T05:27:17.173Z,11.43
2018-04-18T05:29:45.357Z,11.49
2018-04-18T05:32:13.557Z,11.49
2018-04-18T05:34:42.497Z,11.53
2018-04-18T05:37:10.670Z,11.60
2018-04-18T05:39:38.853Z,11.67
2018-04-18T05:42:07.225Z,11.82
2018-04-18T05:44:35.408Z,11.93
2018-04-18T05:47:03.577Z,12.03
2018-04-18T05:49:31.783Z,12.07
2018-04-18T05:51:59.965Z,12.17
2018-04-18T05:54:28.152Z,12.25
2018-04-18T05:56:57.091Z,12.28
2018-04-18T05:59:25.314Z,12.29
2018-04-18T06:01:53.489Z,12.37
2018-04-18T06:04:21.676Z,12.44
2018-04-18T06:06:50.653Z,12.50
2018-04-18T06:09:18.832Z,12.62
2018-04-18T06:11:47.812Z,12.67
2018-04-18T06:14:15.984Z,12.73
2018-04-18T06:16:45.681Z,12.84
2018-04-18T06:19:13.941Z,12.96
2018-04-18T06:21:42.837Z,13.08
2018-04-18T06:24:11.030Z,13.17
2018-04-18T06:26:39.995Z,13.33
2018-04-18T06:29:08.174Z,13.40
2018-04-18T06:31:36.344Z,13.50
2018-04-18T06:34:04.532Z,13.62
2018-04-18T06:36:32.724Z,13.67
2018-04-18T06:39:00.893Z,13.68
2018-04-18T06:41:29.084Z,13.65
2018-04-18T06:43:57.253Z,13.69
2018-04-18T06:46:26.193Z,13.75
2018-04-18T06:48:54.366Z,13.91
2018-04-18T06:51:22.534Z,13.97
2018-04-18T06:53:50.713Z,13.95
2018-04-18T06:56:19.010Z,14.06
2018-04-18T06:58:47.209Z,14.15
2018-04-18T07:01:15.376Z,14.28
2018-04-18T07:03:43.552Z,14.38
2018-04-18T07:06:11.750Z,14.45
2018-04-18T07:08:39.939Z,14.42
2018-04-18T07:11:08.957Z,14.48
2018-04-18T07:13:37.913Z,14.50
2018-04-18T07:16:06.102Z,14.82
2018-04-18T07:18:35.044Z,14.76
2018-04-18T07:21:03.230Z,14.81
2018-04-18T07:23:31.412Z,14.89
2018-04-18T07:25:59.581Z,14.98
2018-04-18T07:28:27.777Z,15.19
2018-04-18T07:30:55.958Z,15.27
2018-04-18T07:33:24.154Z,15.39
2018-04-18T07:35:53.105Z,15.34
2018-04-18T07:38:21.302Z,15.40
2018-04-18T07:40:50.253Z,15.50
2018-04-18T07:43:18.433Z,15.44
2018-04-18T07:45:46.701Z,15.55
2018-04-18T07:48:14.908Z,15.62
2018-04-18T07:50:43.081Z,15.79
2018-04-18T07:53:11.291Z,15.92
2018-04-18T07:55:40.244Z,15.79
2018-04-18T07:58:08.446Z,15.98
2018-04-18T08:00:37.397Z,16.20
2018-04-18T08:03:05.570Z,16.28
2018-04-18T08:05:33.746Z,16.44
2018-04-18T08:08:01.921Z,16.58
2018-04-18T08:10:30.185Z,16.69
2018-04-18T08:12:58.408Z,16.86
2018-04-18T08:15:26.694Z,16.89
2018-04-18T08:17:55.545Z,16.88
2018-04-18T08:20:24.485Z,16.98
2018-04-18T08:22:52.697Z,17.23
2018-04-18T08:25:20.868Z,17.45
2018-04-18T08:27:57.943Z,17.52
2018-04-18T08:30:26.877Z,17.56
2018-04-18T08:32:55.045Z,17.67
2018-04-18T08:35:23.278Z,17.80
2018-04-18T08:37:51.466Z,17.88
2018-04-18T08:40:19.670Z,18.05
2018-04-18T08:42:48.617Z,18.15
2018-04-18T08:45:16.789Z,18.39
2018-04-18T08:47:44.990Z,18.43
2018-04-18T08:50:13.177Z,18.63
2018-04-18T08:52:41.368Z,18.90
2018-04-18T08:55:10.431Z,18.97
2018-04-18T08:57:38.610Z,18.98
2018-04-18T09:00:06.781Z,19.12
2018-04-18T09:02:34.962Z,19.32
2018-04-18T09:05:03.133Z,19.26
2018-04-18T09:07:31.307Z,19.34
2018-04-18T09:09:59.481Z,19.61
2018-04-18T09:12:27.665Z,19.53
2018-04-18T09:14:55.893Z,19.72
2018-04-18T09:17:24.836Z,19.65
2018-04-18T09:19:53.063Z,19.78
2018-04-18T09:22:22.022Z,19.94
2018-04-18T09:24:50.208Z,19.75
2018-04-18T09:27:18.394Z,19.89
2018-04-18T09:29:47.337Z,20.13
2018-04-18T09:32:15.519Z,20.33
2018-04-18T09:34:43.689Z,20.43
2018-04-18T09:37:11.881Z,20.85
2018-04-18T09:39:40.118Z,20.99
2018-04-18T09:42:08.266Z,21.36
2018-04-18T09:44:37.226Z,21.50
2018-04-18T09:47:05.409Z,21.83
2018-04-18T09:49:33.585Z,22.06
2018-04-18T09:52:01.759Z,22.26
2018-04-18T09:54:29.933Z,22.28
2018-04-18T09:56:58.119Z,22.45
2018-04-18T09:59:26.293Z,22.79
2018-04-18T10:01:54.485Z,23.01
2018-04-18T10:04:29.250Z,23.49
2018-04-18T10:06:57.425Z,23.78
2018-04-18T10:09:25.598Z,24.26
2018-04-18T10:11:53.772Z,24.23
2018-04-18T10:14:21.962Z,24.18
2018-04-18T10:16:50.155Z,23.33
2018-04-18T10:19:18.333Z,23.44
2018-04-18T10:21:46.502Z,23.53
2018-04-18T10:24:14.697Z,23.97
2018-04-18T10:26:42.874Z,24.19
2018-04-18T10:29:11.818Z,24.19
2018-04-18T10:31:40.008Z,24.12
2018-04-18T10:34:08.189Z,24.47
2018-04-18T10:36:36.372Z,24.78
2018-04-18T10:39:04.617Z,24.95
2018-04-18T10:41:32.891Z,25.30
2018-04-18T10:44:01.088Z,25.89
2018-04-18T10:46:29.253Z,25.66
2018-04-18T10:48:57.415Z,25.70
2018-04-18T10:51:25.587Z,26.22
2018-04-18T10:53:53.761Z,26.50
2018-04-18T10:56:21.939Z,26.32
2018-04-18T10:58:50.119Z,26.21
2018-04-18T11:01:18.305Z,25.67
2018-04-18T11:03:46.470Z,25.74
2018-04-18T11:06:14.640Z,26.15
2018-04-18T11:08:42.825Z,26.08
2018-04-18T11:11:11.049Z,26.72
2018-04-18T11:13:39.997Z,26.68
2018-04-18T11:16:08.201Z,26.36
2018-04-18T11:18:36.433Z,26.82
2018-04-18T11:21:05.338Z,27.53
2018-04-18T11:23:33.505Z,27.92
2018-04-18T11:26:01.702Z,27.97
2018-04-18T11:28:29.869Z,28.23
2018-04-18T11:30:58.098Z,28.73
2018-04-18T11:33:27.217Z,29.07
2018-04-18T11:35:55.417Z,29.48
2018-04-18T11:38:24.364Z,29.49
2018-04-18T11:40:52.535Z,29.48
2018-04-18T11:43:20.706Z,28.94
2018-04-18T11:45:49.633Z,29.11
2018-04-18T11:48:17.811Z,29.38
2018-04-18T11:50:45.989Z,29.92
2018-04-18T11:53:14.149Z,30.10
2018-04-18T11:55:42.309Z,29.85
2018-04-18T11:58:10.475Z,30.21
2018-04-18T12:00:38.718Z,30.56
2018-04-18T12:03:06.885Z,30.92
2018-04-18T12:05:35.060Z,31.09
2018-04-18T12:08:03.238Z,30.80
2018-04-18T12:10:31.408Z,30.66
2018-04-18T12:12:59.588Z,30.76
2018-04-18T12:15:27.774Z,30.24
2018-04-18T12:17:56.708Z,30.94
2018-04-18T12:20:24.906Z,31.62
2018-04-18T12:22:53.114Z,32.17
2018-04-18T12:25:21.284Z,32.62
2018-04-18T12:27:49.464Z,33.28
2018-04-18T12:30:18.398Z,34.90
2018-04-18T12:32:46.564Z,37.63
2018-04-18T12:35:14.749Z,37.99
2018-04-18T12:37:42.921Z,39.67
2018-04-18T12:40:11.205Z,40.35
2018-04-18T12:42:39.393Z,40.85
2018-04-18T12:45:07.582Z,41.62
2018-04-18T12:47:35.760Z,43.58
2018-04-18T12:50:03.937Z,45.20
2018-04-18T12:52:32.123Z,45.96
2018-04-18T12:55:00.327Z,45.45
2018-04-18T12:57:28.527Z,44.90
2018-04-18T12:59:56.691Z,44.91
2018-04-18T13:02:24.853Z,44.24
2018-04-18T13:04:53.024Z,44.63
2018-04-18T13:07:21.246Z,45.50
2018-04-18T13:09:49.408Z,45.64
2018-04-18T13:12:17.601Z,46.60
2018-04-18T13:14:45.797Z,47.24
2018-04-18T13:17:13.976Z,47.47
2018-04-18T13:19:42.918Z,45.89
2018-04-18T13:22:11.090Z,46.09
2018-04-18T13:24:39.263Z,46.51
2018-04-18T13:27:07.465Z,46.20
2018-04-18T13:29:35.665Z,45.17
2018-04-18T13:32:04.617Z,44.95
2018-04-18T13:34:32.791Z,43.70
2018-04-18T13:37:00.961Z,43.17
2018-04-18T13:39:29.124Z,42.13
2018-04-18T13:41:57.298Z,42.50
2018-04-18T13:44:25.466Z,42.67
2018-04-18T13:46:53.650Z,41.80
2018-04-18T13:49:21.845Z,42.68
2018-04-18T13:51:50.019Z,42.61
2018-04-18T13:54:18.189Z,42.88
2018-04-18T13:56:46.374Z,43.37
2018-04-18T13:59:14.553Z,42.55
2018-04-18T14:01:42.764Z,42.03
2018-04-18T14:04:11.722Z,40.81
2018-04-18T14:06:39.928Z,41.08
2018-04-18T14:09:08.874Z,41.08
2018-04-18T14:11:37.062Z,42.18
2018-04-18T14:14:05.253Z,42.90
2018-04-18T14:16:33.422Z,43.38
2018-04-18T14:19:01.611Z,42.41
2018-04-18T14:21:29.827Z,40.61
2018-04-18T14:23:58.384Z,40.38
2018-04-18T14:26:27.325Z,38.85
2018-04-18T14:28:55.498Z,39.21
2018-04-18T14:31:23.769Z,39.16
2018-04-18T14:33:51.968Z,38.90
2018-04-18T14:36:22.195Z,38.99
2018-04-18T14:38:50.358Z,39.21
2018-04-18T14:41:18.557Z,39.92
2018-04-18T14:43:46.789Z,39.23
2018-04-18T14:46:14.956Z,37.30
2018-04-18T14:48:43.155Z,37.68
2018-04-18T14:51:11.328Z,36.53
2018-04-18T14:53:39.540Z,35.92
2018-04-18T14:56:08.480Z,36.57
2018-04-18T14:58:36.661Z,36.05
2018-04-18T15:01:04.853Z,35.06
2018-04-18T15:03:33.900Z,35.93
2018-04-18T15:06:02.076Z,35.51
2018-04-18T15:08:30.247Z,34.52
2018-04-18T15:10:59.066Z,34.18
2018-04-18T15:13:27.241Z,33.67
2018-04-18T15:15:55.418Z,32.99
2018-04-18T15:18:24.046Z,32.57
2018-04-18T15:20:53.029Z,32.06
2018-04-18T15:23:21.976Z,31.88
2018-04-18T15:25:50.140Z,32.24
2018-04-18T15:28:18.474Z,32.16
2018-04-18T15:30:46.789Z,32.03
2018-04-18T15:33:14.971Z,31.56
2018-04-18T15:35:43.213Z,31.00
2018-04-18T15:38:11.389Z,30.64
2018-04-18T15:40:40.354Z,30.27
2018-04-18T15:43:08.559Z,30.29
2018-04-18T15:45:37.501Z,30.02
2018-04-18T15:48:06.023Z,29.88
2018-04-18T15:50:35.011Z,30.12
2018-04-18T15:53:03.185Z,29.69
2018-04-18T15:55:31.406Z,29.86
2018-04-18T15:57:59.581Z,29.74
2018-04-18T16:00:27.761Z,29.78
2018-04-18T16:02:56.686Z,29.69
2018-04-18T16:05:25.133Z,29.57
2018-04-18T16:07:53.310Z,29.09
2018-04-18T16:10:21.520Z,28.81
2018-04-18T16:12:49.722Z,28.54
2018-04-18T16:15:18.665Z,28.32
2018-04-18T16:17:47.096Z,28.50
2018-04-18T16:20:15.463Z,28.77
2018-04-18T16:22:44.404Z,28.88
2018-04-18T16:25:12.608Z,28.96
2018-04-18T16:27:40.784Z,28.94
2018-04-18T16:30:26.970Z,28.72
2018-04-18T16:32:55.161Z,28.70
2018-04-18T16:35:23.383Z,28.74
2018-04-18T16:37:52.364Z,28.80
2018-04-18T16:40:21.309Z,28.91
2018-04-18T16:42:49.498Z,28.97
2018-04-18T16:45:17.739Z,28.93
2018-04-18T16:47:45.912Z,28.87
2018-04-18T16:50:14.093Z,28.91
2018-04-18T16:52:42.339Z,28.47
2018-04-18T16:55:11.271Z,28.17
2018-04-18T16:57:39.441Z,28.07
2018-04-18T17:00:07.630Z,27.85
2018-04-18T17:02:35.843Z,27.96
2018-04-18T17:05:04.014Z,27.80
2018-04-18T17:07:32.207Z,27.55
2018-04-18T17:10:01.154Z,27.41
2018-04-18T17:12:29.317Z,27.20
2018-04-18T17:14:57.487Z,26.85
2018-04-18T17:17:25.701Z,26.41
2018-04-18T17:19:53.881Z,26.15
2018-04-18T17:22:22.065Z,25.82
2018-04-18T17:24:51.080Z,25.54
2018-04-18T17:27:19.272Z,25.22
2018-04-18T17:29:47.482Z,24.95
2018-04-18T17:32:15.665Z,24.83
2018-04-18T17:34:43.917Z,24.72
2018-04-18T17:37:12.090Z,24.52
2018-04-18T17:39:40.284Z,24.24
2018-04-18T17:42:08.557Z,24.01
2018-04-18T17:44:36.743Z,23.86
2018-04-18T17:47:04.940Z,23.79
2018-04-18T17:49:33.889Z,23.65
2018-04-18T17:52:02.061Z,23.45
2018-04-18T17:54:30.246Z,23.21
2018-04-18T17:56:58.445Z,23.09
2018-04-18T17:59:27.425Z,23.01
2018-04-18T18:01:55.596Z,22.83
2018-04-18T18:04:23.783Z,22.69
2018-04-18T18:06:51.994Z,22.61
2018-04-18T18:09:20.291Z,22.46
2018-04-18T18:11:48.462Z,22.32
2018-04-18T18:14:16.636Z,22.26
2018-04-18T18:16:44.813Z,22.20
2018-04-18T18:19:12.988Z,22.01
2018-04-18T18:21:41.204Z,21.74
2018-04-18T18:24:09.389Z,21.55
2018-04-18T18:26:38.788Z,21.47
2018-04-18T18:29:06.961Z,21.36
2018-04-18T18:31:35.143Z,21.31
2018-04-18T18:34:04.104Z,21.23
2018-04-18T18:36:32.320Z,21.10
2018-04-18T18:39:01.279Z,21.05
2018-04-18T18:41:29.457Z,20.86
2018-04-18T18:43:57.670Z,20.73
2018-04-18T18:46:27.065Z,20.62
2018-04-18T18:48:56.052Z,20.45
2018-04-18T18:51:25.595Z,20.35
2018-04-18T18:53:53.786Z,20.19
2018-04-18T18:56:21.966Z,19.99
2018-04-18T18:58:50.145Z,19.90
2018-04-18T19:01:18.369Z,19.71
2018-04-18T19:03:47.400Z,19.73
2018-04-18T19:06:16.315Z,19.57
2018-04-18T19:08:44.549Z,19.49
2018-04-18T19:11:12.794Z,19.36
2018-04-18T19:13:41.019Z,19.32
2018-04-18T19:16:09.246Z,19.24
2018-04-18T19:18:38.207Z,19.16
2018-04-18T19:21:06.398Z,19.10
2018-04-18T19:23:34.574Z,19.09
2018-04-18T19:26:02.749Z,19.07
2018-04-18T19:28:30.956Z,18.88
2018-04-18T19:30:59.897Z,18.76
2018-04-18T19:33:28.074Z,18.68
2018-04-18T19:35:56.295Z,18.64
2018-04-18T19:38:25.229Z,18.62
2018-04-18T19:40:53.575Z,18.55
2018-04-18T19:43:21.749Z,18.56
2018-04-18T19:45:50.706Z,18.53
2018-04-18T19:48:18.943Z,18.50
2018-04-18T19:50:47.147Z,18.51
2018-04-18T19:53:15.379Z,18.35
2018-04-18T19:55:43.578Z,18.32
2018-04-18T19:58:11.790Z,18.26
2018-04-18T20:00:39.981Z,18.22
2018-04-18T20:03:08.188Z,18.07
2018-04-18T20:05:36.411Z,18.02
2018-04-18T20:08:04.593Z,17.92
2018-04-18T20:10:32.765Z,17.89
2018-04-18T20:13:00.944Z,17.84
2018-04-18T20:15:29.121Z,17.82
2018-04-18T20:17:58.085Z,17.75
2018-04-18T20:20:26.265Z,17.60
2018-04-18T20:22:54.456Z,17.58
2018-04-18T20:25:22.630Z,17.59
2018-04-18T20:27:50.805Z,17.50
2018-04-18T20:30:18.981Z,17.53
2018-04-18T20:32:47.161Z,17.41
2018-04-18T20:35:16.108Z,17.39
2018-04-18T20:37:44.297Z,17.47
2018-04-18T20:40:12.468Z,17.34
2018-04-18T20:42:40.696Z,17.33
2018-04-18T20:45:09.660Z,17.27
2018-04-18T20:47:37.848Z,17.16
2018-04-18T20:50:06.797Z,17.20
2018-04-18T20:52:34.970Z,17.09
2018-04-18T20:55:03.183Z,17.09
2018-04-18T20:57:31.366Z,17.02
2018-04-18T21:00:00.306Z,16.99
2018-04-18T21:02:28.485Z,17.00
2018-04-18T21:04:56.709Z,16.96
2018-04-18T21:07:25.655Z,16.93
2018-04-18T21:09:53.871Z,16.81
2018-04-18T21:12:22.815Z,16.87
2018-04-18T21:14:50.991Z,16.84
2018-04-18T21:17:19.177Z,16.78
2018-04-18T21:19:47.363Z,16.78
2018-04-18T21:22:15.552Z,16.76
2018-04-18T21:24:43.727Z,16.74
2018-04-18T21:27:11.935Z,16.72
2018-04-18T21:29:40.883Z,16.71
2018-04-18T21:32:09.078Z,16.64
2018-04-18T21:34:38.036Z,16.61
2018-04-18T21:37:06.214Z,16.57
2018-04-18T21:39:34.391Z,16.55
2018-04-18T21:42:02.570Z,16.53
2018-04-18T21:44:30.756Z,16.50
2018-04-18T21:46:58.932Z,16.47
2018-04-18T21:49:27.109Z,16.36
2018-04-18T21:51:55.277Z,16.25
2018-04-18T21:54:23.481Z,16.16
2018-04-18T21:56:52.420Z,16.08
2018-04-18T21:59:20.589Z,16.11
2018-04-18T22:01:48.779Z,16.07
2018-04-18T22:04:16.951Z,16.00
2018-04-18T22:06:45.128Z,16.03
2018-04-18T22:09:13.319Z,15.99
2018-04-18T22:11:41.509Z,15.94
2018-04-18T22:14:09.686Z,15.89
2018-04-18T22:16:38.678Z,15.90
2018-04-18T22:19:06.823Z,15.83
2018-04-18T22:21:35.028Z,15.86
2018-04-18T22:24:03.956Z,15.83
2018-04-18T22:26:32.127Z,15.85
2018-04-18T22:29:00.317Z,15.79
2018-04-18T22:31:28.505Z,15.75
2018-04-18T22:33:56.669Z,15.66
2018-04-18T22:36:24.830Z,15.64
2018-04-18T22:38:53.021Z,15.72
2018-04-18T22:41:21.203Z,15.70
2018-04-18T22:43:49.373Z,15.65
2018-04-18T22:46:17.541Z,15.63
2018-04-18T22:48:45.747Z,15.60
2018-04-18T22:51:13.918Z,15.46
2018-04-18T22:53:42.087Z,15.43
2018-04-18T22:56:10.263Z,15.37
2018-04-18T22:58:38.425Z,15.36
2018-04-18T23:01:06.630Z,15.30
2018-04-18T23:03:34.797Z,15.24
2018-04-18T23:06:02.981Z,15.13
2018-04-18T23:08:31.929Z,15.12
2018-04-18T23:11:00.154Z,15.06
2018-04-18T23:13:29.102Z,15.00
2018-04-18T23:15:57.281Z,15.02
2018-04-18T23:18:25.454Z,15.03
2018-04-18T23:20:53.632Z,15.05
2018-04-18T23:23:21.805Z,14.96
2018-04-18T23:25:49.973Z,14.88
2018-04-18T23:28:18.155Z,14.85
2018-04-18T23:30:46.359Z,14.82
2018-04-18T23:33:14.531Z,14.77
2018-04-18T23:35:42.727Z,14.71
2018-04-18T23:38:11.660Z,14.63
2018-04-18T23:40:39.861Z,14.55
2018-04-18T23:43:08.033Z,14.61
2018-04-18T23:45:36.984Z,14.55
2018-04-18T23:48:05.151Z,14.47
2018-04-18T23:50:34.097Z,14.49
2018-04-18T23:53:02.267Z,14.47
2018-04-18T23:55:30.439Z,14.44
2018-04-18T23:57:58.619Z,14.39
